Hickory, Louisiana
Current Conditions -  °F | °C
As of 10:55 PM on Friday 31 Oct 2014 (Local Time) from KOPL Reporting Station
Clear Clear  
Wind Chill: 55°   Ceiling: Unl
Heat Index: 55°   Visibility: 10mi
Dew Point: 46°   Wind: 7mph
Humidity: 71%   Direction: 10°N
Pressure: 30.24"   Gusts: NA
Location:  30.9908°N, 92.0816°W
Report Text: KOPL 010355Z AUTO 01006KT 10SM CLR 13/08 A3024 RMK AO2 T01300078
Loading
Personal Weather Stations






























Interactive Weather Map
Tropical Storm Tracking
New forecast layout! Learn more

10-Day Weather Forecast

Advertisements
Track Severe Weather on mobile